createdAt,value
2022-11-26T00:00:06.225Z,96729.34
2022-11-26T00:02:55.061Z,96724.53
2022-11-26T00:11:37.778Z,96729.41
2022-11-26T00:17:17.091Z,96746.00
2022-11-26T00:20:07.111Z,96746.48
2022-11-26T00:22:58.545Z,96756.61
2022-11-26T00:28:39.817Z,96759.90
2022-11-26T00:34:15.219Z,96760.39
2022-11-26T00:39:47.050Z,96755.19
2022-11-26T00:45:20.388Z,96754.36
2022-11-26T00:48:08.794Z,96759.45
2022-11-26T00:53:39.453Z,96761.44
2022-11-26T00:59:17.512Z,96768.38
2022-11-26T01:02:05.647Z,96768.48
2022-11-26T01:04:53.849Z,96766.25
2022-11-26T01:07:43.488Z,96768.64
2022-11-26T01:13:17.180Z,96779.70
2022-11-26T01:19:36.687Z,96792.97
2022-11-26T01:22:25.527Z,96792.15
2022-11-26T01:25:13.654Z,96803.44
2022-11-26T01:28:02.258Z,96807.81
2022-11-26T01:30:54.008Z,96802.42
2022-11-26T01:39:16.121Z,96811.11
2022-11-26T01:44:50.416Z,96820.95
2022-11-26T01:47:38.895Z,96823.09
2022-11-26T01:53:49.100Z,96828.08
2022-11-26T01:56:40.538Z,96831.53
2022-11-26T02:02:18.695Z,96843.67
2022-11-26T02:05:10.669Z,96841.45
2022-11-26T02:10:46.299Z,96849.30
2022-11-26T02:16:59.136Z,96849.27
2022-11-26T02:20:32.742Z,96852.22
2022-11-26T02:23:51.137Z,96861.34
2022-11-26T02:30:07.111Z,96862.06
2022-11-26T02:38:36.978Z,96884.45
2022-11-26T02:44:12.737Z,96883.25
2022-11-26T02:49:45.228Z,96898.35
2022-11-26T02:55:27.877Z,96906.19
2022-11-26T02:58:16.382Z,96914.19
2022-11-26T03:03:54.051Z,96930.13
2022-11-26T03:06:42.781Z,96927.89
2022-11-26T03:12:25.398Z,96936.50
2022-11-26T03:18:01.490Z,96938.69
2022-11-26T03:23:36.965Z,96938.13
2022-11-26T03:29:06.823Z,96939.24
2022-11-26T03:31:54.753Z,96941.97
2022-11-26T03:34:43.956Z,96938.88
2022-11-26T03:37:32.095Z,96940.85
2022-11-26T03:40:20.799Z,96937.31
2022-11-26T03:43:10.024Z,96941.62
2022-11-26T03:49:00.511Z,96942.48
2022-11-26T03:54:29.991Z,96939.77
2022-11-26T04:00:09.210Z,96946.77
2022-11-26T04:05:45.261Z,96941.36
2022-11-26T04:11:19.659Z,96942.47
2022-11-26T04:14:07.968Z,96939.00
2022-11-26T04:16:57.403Z,96931.98
2022-11-26T04:22:33.352Z,96924.47
2022-11-26T04:25:23.185Z,96925.63
2022-11-26T04:30:56.971Z,96923.17
2022-11-26T04:33:45.935Z,96929.69
2022-11-26T04:36:34.497Z,96926.55
2022-11-26T04:42:11.949Z,96921.10
2022-11-26T04:48:04.944Z,96931.64
2022-11-26T04:53:46.510Z,96924.14
2022-11-26T04:59:18.317Z,96921.48
2022-11-26T05:02:06.447Z,96927.98
2022-11-26T05:07:42.440Z,96940.12
2022-11-26T05:13:13.628Z,96942.06
2022-11-26T05:16:02.819Z,96938.85
2022-11-26T05:18:51.588Z,96943.45
2022-11-26T05:21:41.128Z,96941.00
2022-11-26T05:27:20.013Z,96949.63
2022-11-26T05:32:59.514Z,96947.46
2022-11-26T05:35:48.611Z,96950.16
2022-11-26T05:38:36.835Z,96962.56
2022-11-26T05:46:44.426Z,96971.70
2022-11-26T05:52:15.038Z,96964.19
2022-11-26T05:57:53.662Z,96972.54
2022-11-26T06:03:29.262Z,96974.67
2022-11-26T06:06:20.151Z,96973.33
2022-11-26T06:09:08.853Z,96980.31
2022-11-26T06:14:47.028Z,96985.97
2022-11-26T06:20:21.243Z,96982.48
2022-11-26T06:25:56.373Z,96990.84
2022-11-26T06:31:34.906Z,96996.48
2022-11-26T06:34:24.959Z,96997.57
2022-11-26T06:37:13.424Z,96992.45
2022-11-26T06:42:44.979Z,96982.75
2022-11-26T06:45:33.114Z,96985.17
2022-11-26T06:48:25.222Z,96983.82
2022-11-26T06:53:58.129Z,96993.23
2022-11-26T06:59:32.204Z,97000.80
2022-11-26T07:05:00.573Z,97017.75
2022-11-26T07:07:48.989Z,97020.18
2022-11-26T07:10:38.135Z,97030.94
2022-11-26T07:16:08.557Z,97036.89
2022-11-26T07:19:02.739Z,97041.75
2022-11-26T07:21:48.110Z,97036.09
2022-11-26T07:24:36.784Z,97040.92
2022-11-26T07:30:13.375Z,97048.97
2022-11-26T07:33:01.420Z,97048.97
2022-11-26T07:35:49.660Z,97050.59
2022-11-26T07:38:37.801Z,97051.13
2022-11-26T07:41:26.552Z,97064.05
2022-11-26T07:47:05.884Z,97073.70
2022-11-26T07:49:54.180Z,97073.16
2022-11-26T07:55:28.966Z,97083.61
2022-11-26T07:58:18.678Z,97076.65
2022-11-26T08:01:13.299Z,97083.61
2022-11-26T08:06:46.179Z,97088.11
2022-11-26T08:12:14.469Z,97093.35
2022-11-26T08:15:02.945Z,97093.62
2022-11-26T08:20:39.435Z,97089.77
2022-11-26T08:29:00.147Z,97090.25
2022-11-26T08:34:38.446Z,97089.61
2022-11-26T08:40:19.426Z,97105.70
2022-11-26T08:46:13.066Z,97094.11
2022-11-26T08:49:07.722Z,97106.03
2022-11-26T08:54:45.125Z,97108.70
2022-11-26T09:00:23.032Z,97103.83
2022-11-26T09:03:12.009Z,97099.53
2022-11-26T09:09:07.122Z,97097.30
2022-11-26T09:11:58.334Z,97089.87
2022-11-26T09:17:47.219Z,97098.22
2022-11-26T09:20:35.381Z,97100.72
2022-11-26T09:23:24.496Z,97102.48
2022-11-26T09:29:00.985Z,97106.41
2022-11-26T09:34:39.328Z,97099.16
2022-11-26T09:40:19.504Z,97100.66
2022-11-26T09:43:10.888Z,97104.56
2022-11-26T09:46:01.975Z,97111.12
2022-11-26T09:51:37.167Z,97112.59
2022-11-26T09:57:20.836Z,97114.98
2022-11-26T10:02:54.451Z,97125.24
2022-11-26T10:08:57.712Z,97135.87
2022-11-26T10:14:40.777Z,97133.42
2022-11-26T10:23:57.740Z,97128.91
2022-11-26T10:29:30.144Z,97119.27
2022-11-26T10:35:04.445Z,97117.66
2022-11-26T10:40:39.830Z,97108.52
2022-11-26T10:46:09.875Z,97102.75
2022-11-26T10:52:07.947Z,97094.22
2022-11-26T10:58:06.811Z,97088.58
2022-11-26T11:01:00.153Z,97086.07
2022-11-26T11:06:41.655Z,97092.34
2022-11-26T11:09:34.038Z,97093.23
2022-11-26T11:15:25.820Z,97083.64
2022-11-26T11:21:09.926Z,97074.33
2022-11-26T11:24:10.762Z,97072.06
2022-11-26T11:27:01.002Z,97076.36
2022-11-26T11:35:31.156Z,97058.17
2022-11-26T11:41:14.506Z,97050.31
2022-11-26T11:47:09.850Z,97054.08
2022-11-26T11:53:09.087Z,97050.20
2022-11-26T12:02:05.491Z,97051.16
2022-11-26T12:07:53.481Z,97045.31
2022-11-26T12:13:25.755Z,97038.88
2022-11-26T12:16:18.676Z,97047.11
2022-11-26T12:22:15.729Z,97036.88
2022-11-26T12:27:53.694Z,97025.41
2022-11-26T12:33:28.452Z,97021.09
2022-11-26T12:39:29.301Z,97030.24
2022-11-26T12:45:17.426Z,97022.77
2022-11-26T12:50:55.898Z,97032.92
2022-11-26T12:53:47.871Z,97033.34
2022-11-26T12:56:40.259Z,97035.60
2022-11-26T13:02:16.938Z,97031.46
2022-11-26T13:08:23.597Z,97029.18
2022-11-26T13:14:15.432Z,97034.42
2022-11-26T13:20:10.916Z,97025.52
2022-11-26T13:26:05.021Z,97029.33
2022-11-26T13:29:04.012Z,97029.91
2022-11-26T13:32:12.922Z,97021.42
2022-11-26T13:38:05.998Z,97007.97
2022-11-26T13:43:53.192Z,97010.06
2022-11-26T13:46:42.994Z,97003.60
2022-11-26T13:52:16.324Z,96998.50
2022-11-26T13:57:57.212Z,96994.48
2022-11-26T14:00:45.562Z,97001.05
2022-11-26T14:03:49.174Z,97000.52
2022-11-26T14:09:49.847Z,96998.22
2022-11-26T14:16:00.334Z,96999.70
2022-11-26T14:19:03.082Z,97010.30
2022-11-26T14:22:03.277Z,97010.58
2022-11-26T14:30:51.746Z,96993.44
2022-11-26T14:33:43.868Z,96999.81
2022-11-26T14:39:15.206Z,97003.70
2022-11-26T14:44:51.716Z,96990.13
2022-11-26T14:50:27.825Z,96974.23
2022-11-26T14:56:05.540Z,96964.34
2022-11-26T15:01:37.564Z,96974.70
2022-11-26T15:04:27.402Z,96967.46
2022-11-26T15:07:25.839Z,96977.42
2022-11-26T15:13:11.479Z,96980.95
2022-11-26T15:16:01.573Z,96971.98
2022-11-26T15:21:36.819Z,96974.03
2022-11-26T15:24:24.610Z,96971.62
2022-11-26T15:27:30.348Z,96970.73
2022-11-26T15:30:23.410Z,96965.43
2022-11-26T15:36:00.790Z,96965.75
2022-11-26T15:41:51.002Z,96968.03
2022-11-26T15:44:42.904Z,96965.46
2022-11-26T15:50:21.384Z,96950.33
2022-11-26T15:55:55.445Z,96952.63
2022-11-26T16:01:25.875Z,96956.73
2022-11-26T16:07:30.153Z,96947.92
2022-11-26T16:13:21.438Z,96948.17
2022-11-26T16:18:58.720Z,96951.25
2022-11-26T16:21:57.928Z,96954.76
2022-11-26T16:27:35.076Z,96962.84
2022-11-26T16:33:13.954Z,96961.81
2022-11-26T16:38:45.291Z,96964.28
2022-11-26T16:44:21.243Z,96959.45
2022-11-26T16:47:15.077Z,96961.65
2022-11-26T16:50:03.807Z,96957.33
2022-11-26T16:55:36.186Z,96956.55
2022-11-26T17:04:03.292Z,96959.23
2022-11-26T17:06:52.605Z,96957.63
2022-11-26T17:12:29.053Z,96957.89
2022-11-26T17:18:08.498Z,96956.55
2022-11-26T17:20:56.942Z,96955.78
2022-11-26T17:23:46.328Z,96959.03
2022-11-26T17:29:22.459Z,96955.52
2022-11-26T17:32:13.719Z,96952.84
2022-11-26T17:37:40.524Z,96953.12
2022-11-26T17:43:16.876Z,96964.97
2022-11-26T17:48:59.589Z,96965.26
2022-11-26T17:51:44.900Z,96978.19
2022-11-26T17:54:33.785Z,96981.96
2022-11-26T18:00:13.667Z,96980.61
2022-11-26T18:06:00.489Z,96977.65
2022-11-26T18:11:49.965Z,96963.11
2022-11-26T18:14:43.577Z,96964.97
2022-11-26T18:20:19.884Z,96952.87
2022-11-26T18:28:34.744Z,96961.48
2022-11-26T18:34:04.575Z,96967.41
2022-11-26T18:36:54.015Z,96971.98
2022-11-26T18:42:40.807Z,96977.11
2022-11-26T18:48:07.473Z,96978.17
2022-11-26T18:53:47.510Z,96976.05
2022-11-26T18:59:22.916Z,96969.03
2022-11-26T19:05:12.028Z,96970.65
2022-11-26T19:10:51.189Z,96968.21
2022-11-26T19:13:42.777Z,96969.83
2022-11-26T19:19:10.768Z,96966.34
2022-11-26T19:24:47.718Z,96957.45
2022-11-26T19:27:38.436Z,96968.77
2022-11-26T19:33:13.004Z,96973.05
2022-11-26T19:38:57.988Z,96972.25
2022-11-26T19:41:46.556Z,96975.75
2022-11-26T19:47:24.154Z,96966.86
2022-11-26T19:53:25.618Z,96952.34
2022-11-26T19:59:03.121Z,96952.60
2022-11-26T20:07:47.272Z,96944.54
2022-11-26T20:18:51.983Z,96952.87
2022-11-26T20:43:15.486Z,96951.47
2022-11-26T20:53:38.831Z,96928.86
2022-11-26T21:05:48.041Z,96928.88
2022-11-26T21:08:40.276Z,96920.77
2022-11-26T21:17:01.946Z,96895.48
2022-11-26T21:22:39.812Z,96882.88
2022-11-26T21:28:16.853Z,96867.28
2022-11-26T21:34:00.723Z,96868.89
2022-11-26T21:39:29.410Z,96880.20
2022-11-26T21:42:18.172Z,96884.48
2022-11-26T21:47:46.248Z,96887.65
2022-11-26T21:53:25.511Z,96900.02
2022-11-26T21:56:17.378Z,96900.73
2022-11-26T21:59:06.396Z,96900.77
2022-11-26T22:04:36.296Z,96905.08
2022-11-26T22:07:29.972Z,96905.66
2022-11-26T22:13:08.708Z,96902.78
2022-11-26T22:18:38.391Z,96908.20
2022-11-26T22:24:19.003Z,96916.72
2022-11-26T22:29:55.739Z,96915.50
2022-11-26T22:32:44.113Z,96920.56
2022-11-26T22:38:20.108Z,96934.22
2022-11-26T22:43:49.952Z,96944.13
2022-11-26T22:52:13.908Z,96937.50
2022-11-26T22:57:49.688Z,96932.92
2022-11-26T23:03:36.571Z,96925.44
2022-11-26T23:12:06.709Z,96927.61
2022-11-26T23:14:59.726Z,96925.72
2022-11-26T23:17:50.640Z,96936.78
2022-11-26T23:23:24.026Z,96931.16
2022-11-26T23:26:15.374Z,96932.75
2022-11-26T23:31:48.231Z,96928.17
2022-11-26T23:37:18.352Z,96925.09
2022-11-26T23:45:44.478Z,96923.30
2022-11-26T23:51:15.279Z,96913.84
2022-11-26T23:54:09.806Z,96910.83
2022-11-26T23:56:58.489Z,96908.42
2022-11-26T23:59:46.481Z,96915.61
